Time;durP1;ratioP1;P1;durP2;ratioP2;P2;SDS_P1;SDS_P2;PMS_P1;PMS_P2;Temp;Humidity;BMP_temperature;BMP_pressure;BME280_temperature;BME280_humidity;BME280_pressure;Samples;Min_cycle;Max_cycle;Signal;HPM_P1;HPM_P2
2021/10/24 00:00:01;;;;;;;15.07;11.23;;;8.30;99.30;;;;;;5051528;28;21016;-69
2021/10/24 00:02:27;;;;;;;12.67;11.40;;;8.30;99.40;;;;;;5050915;28;20426;-69
2021/10/24 00:04:53;;;;;;;11.83;10.60;;;8.20;99.50;;;;;;5050296;28;20424;-69
2021/10/24 00:07:19;;;;;;;14.77;10.87;;;8.30;99.30;;;;;;5052117;28;20443;-69
2021/10/24 00:09:45;;;;;;;13.43;10.60;;;8.20;99.30;;;;;;5051354;28;20408;-68
2021/10/24 00:12:10;;;;;;;12.23;10.93;;;8.20;99.10;;;;;;5052211;28;20708;-69
2021/10/24 00:14:36;;;;;;;12.23;10.93;;;8.20;99.00;;;;;;5052008;28;20230;-69
2021/10/24 00:17:02;;;;;;;12.20;10.90;;;8.10;99.10;;;;;;5051574;28;20187;-68
2021/10/24 00:19:28;;;;;;;11.87;10.63;;;8.10;99.00;;;;;;5051848;28;20177;-68
2021/10/24 00:21:54;;;;;;;12.30;11.00;;;8.10;99.20;;;;;;5051319;28;20457;-68
2021/10/24 00:24:20;;;;;;;11.23;10.23;;;8.10;99.20;;;;;;5050800;28;20192;-68
2021/10/24 00:26:45;;;;;;;11.73;10.50;;;8.00;99.10;;;;;;5049894;28;20181;-69
2021/10/24 00:29:11;;;;;;;11.13;10.03;;;8.00;99.10;;;;;;5052037;28;20413;-68
2021/10/24 00:31:37;;;;;;;12.10;11.00;;;8.00;99.20;;;;;;5050533;28;20181;-68
2021/10/24 00:34:03;;;;;;;10.83;9.80;;;8.00;99.20;;;;;;5050710;28;20182;-68
2021/10/24 00:36:29;;;;;;;12.73;11.50;;;8.00;99.10;;;;;;5051909;28;20523;-68
2021/10/24 00:38:54;;;;;;;11.77;10.50;;;8.00;99.10;;;;;;5051039;28;20485;-69
2021/10/24 00:41:20;;;;;;;11.27;10.07;;;7.60;98.80;;;;;;5051663;28;20657;-69
2021/10/24 00:43:47;;;;;;;11.67;10.67;;;7.90;98.90;;;;;;5053702;28;20176;-70
2021/10/24 00:46:12;;;;;;;16.00;10.50;;;7.90;99.10;;;;;;5056033;28;20568;-69
2021/10/24 00:48:38;;;;;;;11.00;9.90;;;7.90;99.20;;;;;;5055530;28;20419;-69
2021/10/24 00:51:04;;;;;;;11.97;10.77;;;7.90;99.50;;;;;;5053461;28;20182;-69
2021/10/24 00:53:30;;;;;;;12.77;9.33;;;7.90;99.10;;;;;;5055929;28;20296;-68
2021/10/24 00:55:57;;;;;;;11.50;10.33;;;7.90;99.40;;;;;;5054490;28;20451;-69
2021/10/24 00:58:24;;;;;;;11.67;10.57;;;7.90;99.30;;;;;;5055399;28;20445;-69
2021/10/24 01:00:49;;;;;;;10.60;9.70;;;7.80;99.20;;;;;;5054478;28;20431;-69
2021/10/24 01:03:15;;;;;;;13.20;11.27;;;7.80;99.30;;;;;;5055523;28;20415;-69
2021/10/24 01:05:42;;;;;;;10.37;9.37;;;7.80;99.20;;;;;;5055675;28;20636;-69
2021/10/24 01:08:09;;;;;;;10.97;9.87;;;7.80;99.10;;;;;;5054930;28;20403;-69
2021/10/24 01:10:36;;;;;;;11.43;10.43;;;7.80;99.30;;;;;;5054230;28;20434;-69
2021/10/24 01:13:03;;;;;;;11.43;10.40;;;7.70;99.50;;;;;;5054551;28;20447;-69
2021/10/24 01:15:28;;;;;;;13.10;11.53;;;7.70;99.50;;;;;;5053876;28;20427;-69
2021/10/24 01:17:54;;;;;;;11.00;9.90;;;7.70;99.30;;;;;;5053191;28;20420;-69
2021/10/24 01:20:25;;;;;;;10.87;9.87;;;7.70;99.30;;;;;;5055162;28;20207;-69
2021/10/24 01:22:52;;;;;;;10.57;9.47;;;7.70;99.40;;;;;;5053323;28;20213;-69
2021/10/24 01:25:19;;;;;;;11.23;10.17;;;7.80;99.50;;;;;;5054824;28;20404;-69
2021/10/24 01:27:46;;;;;;;11.63;9.87;;;7.70;99.20;;;;;;5054860;28;20424;-76
2021/10/24 01:30:12;;;;;;;11.40;10.40;;;7.70;99.40;;;;;;5053388;28;20433;-68
2021/10/24 01:32:38;;;;;;;11.33;10.23;;;7.70;99.40;;;;;;5054897;28;20451;-69
2021/10/24 01:35:06;;;;;;;11.73;9.60;;;7.70;99.40;;;;;;5052676;28;20497;-69
2021/10/24 01:37:34;;;;;;;9.57;8.67;;;7.70;99.40;;;;;;5054372;28;20177;-69
2021/10/24 01:40:03;;;;;;;11.13;10.03;;;7.60;99.20;;;;;;5053844;28;20430;-69
2021/10/24 01:42:29;;;;;;;10.00;9.07;;;7.60;99.10;;;;;;5054757;28;20451;-69
2021/10/24 01:44:55;;;;;;;12.27;10.83;;;7.60;99.10;;;;;;5052218;28;20495;-69
2021/10/24 01:47:21;;;;;;;11.33;10.10;;;7.60;99.30;;;;;;5054674;28;20440;-69
2021/10/24 01:49:46;;;;;;;10.90;9.40;;;7.70;99.40;;;;;;5054346;28;20419;-77
2021/10/24 01:52:13;;;;;;;10.50;9.60;;;7.60;99.40;;;;;;5053974;28;20534;-69
2021/10/24 01:54:42;;;;;;;11.07;10.00;;;7.60;99.30;;;;;;5053144;28;20185;-69
2021/10/24 01:57:08;;;;;;;10.67;9.43;;;7.60;99.40;;;;;;5053750;28;20458;-69
2021/10/24 01:59:34;;;;;;;10.97;9.97;;;7.60;99.40;;;;;;5054524;28;20910;-68
2021/10/24 02:01:59;;;;;;;11.17;10.10;;;7.50;99.20;;;;;;5053583;28;20184;-69
2021/10/24 02:04:25;;;;;;;10.60;9.40;;;7.50;99.00;;;;;;5054703;28;20188;-68
2021/10/24 02:06:51;;;;;;;11.03;10.03;;;7.60;99.00;;;;;;5052211;28;20165;-70
2021/10/24 02:09:16;;;;;;;11.20;10.00;;;7.50;99.00;;;;;;5053645;28;20268;-69
2021/10/24 02:11:42;;;;;;;10.63;9.20;;;7.50;99.00;;;;;;5054335;28;20203;-68
2021/10/24 02:14:08;;;;;;;10.93;9.90;;;7.50;99.00;;;;;;5053203;28;20219;-69
2021/10/24 02:16:33;;;;;;;11.33;9.90;;;7.50;99.00;;;;;;5052890;28;20181;-69
2021/10/24 02:18:59;;;;;;;12.57;10.63;;;7.50;99.20;;;;;;5052877;28;20260;-69
2021/10/24 02:21:25;;;;;;;11.57;10.37;;;7.50;99.40;;;;;;5054050;28;20188;-69
2021/10/24 02:23:51;;;;;;;10.60;9.60;;;7.50;99.40;;;;;;5052150;28;20271;-77
2021/10/24 02:26:16;;;;;;;10.60;9.60;;;7.50;99.20;;;;;;5053747;28;20416;-69
2021/10/24 02:28:42;;;;;;;12.73;10.90;;;7.40;99.30;;;;;;5053991;28;20178;-69
2021/10/24 02:31:08;;;;;;;11.47;10.37;;;7.40;99.20;;;;;;5051620;28;20178;-69
2021/10/24 02:33:34;;;;;;;10.67;9.67;;;7.40;99.30;;;;;;5053576;28;20236;-68
2021/10/24 02:35:59;;;;;;;13.17;10.43;;;7.50;99.50;;;;;;5052203;28;20997;-71
2021/10/24 02:38:25;;;;;;;11.50;10.37;;;7.50;99.40;;;;;;5053487;28;20185;-68
2021/10/24 02:40:51;;;;;;;10.27;9.27;;;7.60;99.80;;;;;;5053403;28;20220;-78
2021/10/24 02:43:17;;;;;;;11.87;9.53;;;7.60;99.60;;;;;;5053159;28;20177;-69
2021/10/24 02:45:42;;;;;;;11.67;10.47;;;7.70;99.20;;;;;;5052127;28;20228;-69
2021/10/24 02:48:09;;;;;;;11.90;10.00;;;7.60;99.00;;;;;;5052774;28;20606;-69
2021/10/24 02:50:34;;;;;;;11.60;10.40;;;7.60;98.90;;;;;;5053519;28;20581;-69
2021/10/24 02:53:00;;;;;;;11.83;10.60;;;7.50;98.80;;;;;;5051141;28;20446;-69
2021/10/24 02:55:26;;;;;;;11.80;10.80;;;7.50;98.90;;;;;;5053538;28;20185;-69
2021/10/24 02:57:52;;;;;;;12.57;10.03;;;7.50;99.00;;;;;;5052902;28;20237;-78
2021/10/24 03:00:18;;;;;;;11.50;10.30;;;7.50;99.10;;;;;;5053384;28;20183;-69
2021/10/24 03:02:44;;;;;;;11.40;10.23;;;7.40;99.00;;;;;;5052981;28;20412;-69
2021/10/24 03:05:10;;;;;;;11.77;10.60;;;7.40;99.00;;;;;;5050440;28;20184;-69
2021/10/24 03:07:37;;;;;;;11.60;10.50;;;7.40;99.00;;;;;;5051988;28;20936;-69
2021/10/24 03:10:03;;;;;;;11.27;10.17;;;7.40;99.10;;;;;;5052788;28;20411;-69
2021/10/24 03:12:29;;;;;;;14.90;10.87;;;7.30;99.30;;;;;;5051945;28;20458;-68
2021/10/24 03:14:55;;;;;;;12.40;11.20;;;7.30;99.20;;;;;;5050797;28;20781;-69
2021/10/24 03:17:21;;;;;;;12.70;10.83;;;7.30;99.10;;;;;;5051500;28;20428;-69
2021/10/24 03:19:46;;;;;;;13.53;10.70;;;7.30;99.20;;;;;;5052722;28;20188;-68
2021/10/24 03:22:12;;;;;;;11.70;10.50;;;7.30;99.10;;;;;;5052534;28;20191;-69
2021/10/24 03:24:38;;;;;;;12.40;10.20;;;7.30;99.20;;;;;;5052943;28;20179;-69
2021/10/24 03:27:04;;;;;;;11.60;10.37;;;7.30;99.10;;;;;;5052050;28;20535;-68
2021/10/24 03:29:30;;;;;;;11.10;10.00;;;7.30;99.20;;;;;;5052807;28;20498;-68
2021/10/24 03:31:56;;;;;;;11.60;9.80;;;7.20;99.00;;;;;;5051861;28;20210;-70
2021/10/24 03:34:22;;;;;;;10.50;9.60;;;7.20;99.00;;;;;;5052396;28;20441;-69
2021/10/24 03:36:47;;;;;;;10.93;9.93;;;7.20;99.10;;;;;;5052506;28;20455;-68
2021/10/24 03:39:13;;;;;;;11.37;10.17;;;7.20;99.20;;;;;;5051722;28;20242;-68
2021/10/24 03:41:39;;;;;;;12.30;10.03;;;7.20;99.20;;;;;;5052641;28;20283;-69
2021/10/24 03:44:05;;;;;;;12.23;10.63;;;7.20;99.20;;;;;;5051484;28;20228;-71
2021/10/24 03:46:31;;;;;;;11.43;9.83;;;7.20;99.20;;;;;;5053012;28;20194;-68
2021/10/24 03:49:00;;;;;;;9.97;9.07;;;7.20;99.10;;;;;;5051546;28;20431;-70
2021/10/24 03:51:26;;;;;;;10.20;9.20;;;7.10;99.00;;;;;;5052157;28;20414;-69
2021/10/24 03:53:51;;;;;;;11.33;9.70;;;7.10;99.00;;;;;;5052331;28;20468;-69
2021/10/24 03:56:17;;;;;;;10.07;9.07;;;7.10;99.00;;;;;;5052021;28;20172;-69
2021/10/24 03:58:44;;;;;;;10.50;9.47;;;7.00;98.90;;;;;;5052351;28;20182;-69
2021/10/24 04:01:10;;;;;;;11.80;10.27;;;7.00;99.00;;;;;;5051587;28;20219;-69
2021/10/24 04:03:36;;;;;;;11.53;9.97;;;7.00;99.10;;;;;;5051762;28;20431;-68
2021/10/24 04:06:03;;;;;;;9.83;8.80;;;7.00;99.10;;;;;;5051407;28;20784;-69
2021/10/24 04:08:30;;;;;;;10.70;9.60;;;7.00;99.10;;;;;;5052228;28;20415;-68
2021/10/24 04:10:55;;;;;;;10.00;9.00;;;6.60;98.80;;;;;;5052035;28;20433;-78
2021/10/24 04:13:21;;;;;;;10.87;9.80;;;7.00;98.90;;;;;;5050370;28;20947;-68
2021/10/24 04:15:48;;;;;;;11.13;9.80;;;6.90;98.80;;;;;;5052098;28;20556;-69
2021/10/24 04:18:14;;;;;;;9.90;8.87;;;6.90;98.80;;;;;;5050535;28;20415;-69
2021/10/24 04:20:40;;;;;;;10.30;9.27;;;6.90;98.80;;;;;;5052034;28;20481;-69
2021/10/24 04:23:05;;;;;;;10.40;9.40;;;6.90;98.80;;;;;;5051243;28;20190;-69
2021/10/24 04:25:31;;;;;;;10.03;8.97;;;7.00;99.00;;;;;;5051812;28;20184;-69
2021/10/24 04:27:57;;;;;;;12.83;9.00;;;6.90;98.80;;;;;;5051519;28;20172;-77
2021/10/24 04:30:23;;;;;;;11.30;9.23;;;6.90;98.70;;;;;;5051661;28;20179;-68
2021/10/24 04:32:49;;;;;;;11.60;9.13;;;6.80;98.70;;;;;;5051322;28;20976;-69
2021/10/24 04:35:17;;;;;;;10.47;9.47;;;6.80;98.80;;;;;;5051172;28;20593;-69
2021/10/24 04:37:43;;;;;;;10.30;8.77;;;6.50;98.80;;;;;;5051968;28;20413;-69
2021/10/24 04:40:10;;;;;;;10.50;9.50;;;6.80;99.10;;;;;;5051190;28;20407;-69
2021/10/24 04:42:36;;;;;;;9.87;8.90;;;6.70;99.20;;;;;;5051194;28;20483;-69
2021/10/24 04:45:04;;;;;;;11.30;9.47;;;6.80;99.10;;;;;;5051062;28;20455;-69
2021/10/24 04:47:30;;;;;;;10.90;9.23;;;6.70;98.90;;;;;;5051935;28;20477;-68
2021/10/24 04:49:55;;;;;;;13.10;9.50;;;6.70;99.00;;;;;;5051571;28;20423;-78
2021/10/24 04:52:21;;;;;;;10.90;9.80;;;6.50;99.20;;;;;;5050982;28;20286;-70
2021/10/24 04:54:47;;;;;;;14.87;9.47;;;6.70;99.50;;;;;;5051426;28;20647;-69
2021/10/24 04:57:12;;;;;;;10.30;8.90;;;6.80;99.60;;;;;;5049785;28;20529;-69
2021/10/24 04:59:38;;;;;;;10.57;9.43;;;6.80;99.60;;;;;;5051810;28;20228;-69
2021/10/24 05:02:04;;;;;;;10.37;9.37;;;6.80;99.50;;;;;;5050639;28;20214;-69
2021/10/24 05:04:29;;;;;;;11.30;9.67;;;6.80;99.50;;;;;;5051503;28;20211;-68
2021/10/24 05:06:55;;;;;;;11.80;10.10;;;6.80;99.60;;;;;;5051666;28;20257;-69
2021/10/24 05:09:21;;;;;;;10.03;8.80;;;6.70;99.30;;;;;;5050898;28;20176;-69
2021/10/24 05:11:46;;;;;;;10.90;9.77;;;6.80;99.30;;;;;;5051563;28;20608;-69
2021/10/24 05:14:12;;;;;;;9.83;8.90;;;6.80;99.30;;;;;;5050648;28;20194;-69
2021/10/24 05:16:38;;;;;;;12.27;8.90;;;6.50;99.40;;;;;;5051675;28;20183;-69
2021/10/24 05:19:04;;;;;;;9.30;8.40;;;6.80;99.70;;;;;;5050420;28;20204;-69
2021/10/24 05:21:31;;;;;;;12.00;8.40;;;6.80;99.50;;;;;;5051599;28;20197;-69
2021/10/24 05:23:56;;;;;;;9.60;8.60;;;6.80;99.30;;;;;;5051337;28;20402;-69
2021/10/24 05:26:22;;;;;;;9.83;8.80;;;6.40;99.20;;;;;;5050920;28;20406;-69
2021/10/24 05:28:48;;;;;;;9.10;8.10;;;6.80;99.60;;;;;;5052493;28;20650;-69
2021/10/24 05:31:14;;;;;;;10.80;9.70;;;6.70;99.30;;;;;;5053129;28;20634;-69
2021/10/24 05:33:41;;;;;;;10.03;9.03;;;6.70;99.20;;;;;;5053743;28;20199;-69
2021/10/24 05:36:06;;;;;;;10.03;9.03;;;6.70;99.20;;;;;;5054182;28;20650;-69
2021/10/24 05:38:32;;;;;;;10.47;9.03;;;6.70;99.10;;;;;;5054893;28;20393;-69
2021/10/24 05:40:58;;;;;;;10.50;9.03;;;6.70;99.10;;;;;;5055225;28;20171;-69
2021/10/24 05:43:24;;;;;;;9.20;8.30;;;6.60;98.90;;;;;;5054121;28;20410;-69
2021/10/24 05:45:50;;;;;;;10.73;9.30;;;6.60;98.90;;;;;;5054808;28;20467;-69
2021/10/24 05:48:19;;;;;;;12.53;9.17;;;6.60;98.90;;;;;;5053870;28;20182;-69
2021/10/24 05:50:45;;;;;;;10.07;9.07;;;6.60;98.80;;;;;;5053570;28;20429;-68
2021/10/24 05:53:11;;;;;;;11.50;9.00;;;6.60;98.80;;;;;;5053369;28;20542;-69
2021/10/24 05:55:37;;;;;;;13.10;9.50;;;6.30;98.70;;;;;;5054617;28;20410;-69
2021/10/24 05:58:04;;;;;;;11.77;9.50;;;6.50;98.90;;;;;;5053950;28;20497;-78
2021/10/24 06:00:32;;;;;;;10.17;9.07;;;6.60;99.00;;;;;;5052990;28;20487;-69
2021/10/24 06:03:04;;;;;;;10.50;8.90;;;6.50;99.10;;;;;;5054488;28;20453;-68
2021/10/24 06:05:29;;;;;;;10.70;9.10;;;6.50;99.20;;;;;;5054487;28;20382;-69
2021/10/24 06:07:55;;;;;;;10.50;9.50;;;6.50;99.20;;;;;;5052694;28;20888;-69
2021/10/24 06:10:22;;;;;;;9.97;8.97;;;6.50;99.30;;;;;;5053200;28;20424;-68
2021/10/24 06:12:51;;;;;;;10.73;8.73;;;6.50;99.50;;;;;;5053948;28;20563;-69
2021/10/24 06:15:20;;;;;;;10.60;9.50;;;6.50;99.40;;;;;;5053022;28;20409;-68
2021/10/24 06:17:47;;;;;;;9.77;8.60;;;6.20;99.40;;;;;;5053905;28;20421;-69
2021/10/24 06:20:14;;;;;;;12.20;9.10;;;6.60;99.70;;;;;;5053372;28;20420;-69
2021/10/24 06:22:41;;;;;;;9.83;8.30;;;6.50;99.60;;;;;;5054081;28;20400;-69
2021/10/24 06:25:08;;;;;;;13.97;9.10;;;6.50;99.60;;;;;;5035288;28;20418;-69
2021/10/24 06:27:38;;;;;;;9.20;8.20;;;6.60;99.70;;;;;;5053494;28;20475;-69
2021/10/24 06:30:09;;;;;;;11.43;9.33;;;6.50;99.70;;;;;;5053144;28;20524;-78
2021/10/24 06:32:35;;;;;;;9.33;8.33;;;6.50;99.90;;;;;;5053356;28;20446;-68
2021/10/24 06:35:01;;;;;;;8.90;8.00;;;6.60;99.90;;;;;;5053767;28;20505;-68
2021/10/24 06:37:28;;;;;;;11.00;9.10;;;6.60;99.90;;;;;;5053379;28;20408;-69
2021/10/24 06:39:54;;;;;;;10.00;9.03;;;6.60;99.90;;;;;;5051241;28;20804;-69
2021/10/24 06:42:20;;;;;;;9.63;8.73;;;6.70;99.90;;;;;;5052445;28;20401;-69
2021/10/24 06:44:46;;;;;;;10.60;9.50;;;6.80;99.90;;;;;;5053549;28;20635;-68
2021/10/24 06:47:12;;;;;;;10.37;8.90;;;6.80;99.90;;;;;;5052675;28;20461;-69
2021/10/24 06:49:38;;;;;;;10.33;9.33;;;6.80;99.90;;;;;;5053139;28;20393;-69
2021/10/24 06:52:05;;;;;;;9.33;8.33;;;6.90;99.90;;;;;;5051977;28;20417;-77
2021/10/24 06:54:33;;;;;;;11.83;9.30;;;6.90;99.90;;;;;;5053630;28;20200;-68
2021/10/24 06:56:59;;;;;;;9.17;8.30;;;6.90;99.90;;;;;;5053081;28;20431;-68
2021/10/24 06:59:25;;;;;;;10.20;9.17;;;6.70;99.90;;;;;;5052607;28;21009;-69
2021/10/24 07:01:51;;;;;;;10.93;9.77;;;6.90;99.90;;;;;;5052112;28;20183;-72
2021/10/24 07:04:16;;;;;;;9.50;8.60;;;7.00;99.90;;;;;;5051650;28;20207;-68
2021/10/24 07:06:42;;;;;;;9.53;8.50;;;7.00;99.90;;;;;;5053233;28;20183;-68
2021/10/24 07:09:08;;;;;;;10.03;9.00;;;7.00;99.90;;;;;;5051255;28;20175;-76
2021/10/24 07:11:33;;;;;;;10.23;9.10;;;7.00;99.90;;;;;;5053168;28;20180;-69
2021/10/24 07:13:59;;;;;;;11.87;9.67;;;6.70;99.90;;;;;;5052838;28;20216;-68
2021/10/24 07:16:25;;;;;;;10.20;9.10;;;7.00;99.90;;;;;;5051131;28;20184;-69
2021/10/24 07:18:51;;;;;;;10.47;8.90;;;7.00;99.90;;;;;;5051428;28;20184;-68
2021/10/24 07:21:17;;;;;;;10.37;9.30;;;7.10;99.90;;;;;;5052443;28;20168;-69
2021/10/24 07:23:42;;;;;;;11.30;10.10;;;7.20;99.90;;;;;;5052322;28;20911;-68
2021/10/24 07:26:08;;;;;;;10.13;9.13;;;7.20;99.90;;;;;;5052365;28;20576;-76
2021/10/24 07:28:34;;;;;;;11.30;9.40;;;7.30;99.90;;;;;;5052803;28;20226;-68
2021/10/24 07:31:00;;;;;;;9.20;8.40;;;7.30;99.90;;;;;;5052201;28;20424;-68
2021/10/24 07:33:26;;;;;;;11.70;9.50;;;7.40;99.90;;;;;;5051569;28;20204;-68
2021/10/24 07:35:51;;;;;;;11.60;9.07;;;7.40;99.90;;;;;;5052743;28;20581;-68
2021/10/24 07:38:17;;;;;;;9.57;8.63;;;7.50;99.90;;;;;;5051635;28;20516;-68
2021/10/24 07:40:52;;;;;;;10.83;9.33;;;7.50;99.90;;;;;;5052651;28;20180;-68
2021/10/24 07:43:22;;;;;;;11.33;10.23;;;7.60;99.90;;;;;;5050449;28;20172;-68
2021/10/24 07:45:49;;;;;;;10.97;9.40;;;7.60;99.90;;;;;;5051896;28;20471;-68
2021/10/24 07:48:16;;;;;;;9.17;8.33;;;7.70;99.90;;;;;;5051242;28;20435;-68
2021/10/24 07:50:45;;;;;;;10.77;9.67;;;7.80;99.90;;;;;;5052355;28;20412;-68
2021/10/24 07:53:12;;;;;;;11.10;9.67;;;7.80;99.90;;;;;;5049398;28;20426;-77
2021/10/24 07:55:38;;;;;;;11.57;9.83;;;7.80;99.90;;;;;;5051673;28;20416;-68
2021/10/24 07:58:04;;;;;;;9.00;8.10;;;8.00;99.90;;;;;;5050683;28;20957;-68
2021/10/24 08:00:30;;;;;;;9.70;8.70;;;8.00;99.90;;;;;;5050277;28;20259;-68
2021/10/24 08:02:56;;;;;;;10.87;9.70;;;8.10;99.90;;;;;;5051757;28;20420;-68
2021/10/24 08:05:22;;;;;;;11.33;10.23;;;8.10;99.90;;;;;;5051231;28;20466;-68
2021/10/24 08:07:48;;;;;;;11.20;10.17;;;8.20;99.90;;;;;;5051616;28;20435;-68
2021/10/24 08:10:16;;;;;;;247.77;151.73;;;8.30;99.90;;;;;;5051037;28;20177;-69
2021/10/24 08:12:43;;;;;;;231.17;135.30;;;8.40;99.90;;;;;;5052049;28;20448;-68
2021/10/24 08:15:11;;;;;;;36.70;24.20;;;8.50;99.90;;;;;;5051494;28;20809;-74
2021/10/24 08:17:37;;;;;;;13.27;11.40;;;8.60;99.90;;;;;;5050693;28;20417;-70
2021/10/24 08:20:04;;;;;;;12.20;10.43;;;8.70;99.90;;;;;;5050285;28;20502;-68
2021/10/24 08:22:32;;;;;;;10.40;9.10;;;8.80;99.90;;;;;;5050281;28;20963;-67
2021/10/24 08:24:58;;;;;;;11.27;10.27;;;8.90;99.90;;;;;;5051270;28;20428;-67
2021/10/24 08:27:24;;;;;;;11.30;10.07;;;9.10;99.90;;;;;;5050049;28;20425;-67
2021/10/24 08:29:50;;;;;;;11.60;10.30;;;9.20;99.90;;;;;;5051779;28;20423;-68
2021/10/24 08:32:15;;;;;;;10.80;9.80;;;9.30;99.90;;;;;;5048824;28;20509;-68
2021/10/24 08:34:42;;;;;;;133.33;81.93;;;9.30;99.90;;;;;;5051131;28;20183;-67
2021/10/24 08:37:09;;;;;;;73.30;44.30;;;9.40;99.90;;;;;;5051094;28;20594;-67
2021/10/24 08:39:35;;;;;;;26.63;18.80;;;9.60;99.90;;;;;;5051221;28;20414;-67
2021/10/24 08:42:03;;;;;;;12.03;8.73;;;9.70;99.90;;;;;;5051214;28;20421;-66
2021/10/24 08:44:30;;;;;;;8.53;7.60;;;9.90;99.90;;;;;;5050470;28;20551;-67
2021/10/24 08:46:56;;;;;;;8.37;7.40;;;10.00;99.90;;;;;;5051745;28;20779;-67
2021/10/24 08:49:21;;;;;;;7.43;6.73;;;10.10;99.90;;;;;;5050736;28;20433;-67
2021/10/24 08:51:48;;;;;;;9.33;7.83;;;10.30;99.90;;;;;;5050820;28;20545;-67
2021/10/24 08:54:15;;;;;;;7.97;6.97;;;10.40;99.90;;;;;;5050128;28;20275;-74
2021/10/24 08:56:41;;;;;;;9.53;8.27;;;10.60;99.90;;;;;;5051735;28;20472;-67
2021/10/24 08:59:07;;;;;;;7.60;6.80;;;10.80;99.90;;;;;;5050269;28;20425;-66
2021/10/24 09:01:33;;;;;;;7.70;7.10;;;11.10;99.90;;;;;;5050400;28;20343;-67
2021/10/24 09:04:13;;;;;;;10.00;7.77;;;11.30;99.40;;;;;;5053229;28;20194;-67
2021/10/24 09:06:59;;;;;;;11.10;7.00;;;11.60;99.30;;;;;;5054274;28;20427;-66
2021/10/24 09:09:29;;;;;;;7.17;6.50;;;11.90;97.70;;;;;;5053221;28;20820;-66
2021/10/24 09:12:06;;;;;;;108.93;65.13;;;12.20;97.90;;;;;;5054793;28;20482;-67
2021/10/24 09:14:47;;;;;;;35.67;21.60;;;12.50;96.60;;;;;;5054263;28;21042;-67
2021/10/24 09:17:30;;;;;;;9.23;7.67;;;12.90;95.80;;;;;;5054661;28;20426;-73
2021/10/24 09:19:57;;;;;;;5.40;4.90;;;13.20;96.30;;;;;;5054248;28;20777;-67
2021/10/24 09:22:38;;;;;;;5.27;4.77;;;13.50;94.90;;;;;;5053112;28;20427;-67
2021/10/24 09:25:10;;;;;;;8.50;5.17;;;13.80;92.40;;;;;;5054458;28;20447;-68
2021/10/24 09:27:42;;;;;;;4.20;4.00;;;14.10;90.30;;;;;;5052871;28;20590;-68
2021/10/24 09:30:12;;;;;;;4.60;3.80;;;14.50;89.40;;;;;;5053685;28;20430;-68
2021/10/24 09:32:55;;;;;;;4.27;3.93;;;14.80;89.00;;;;;;5053335;28;20449;-68
2021/10/24 09:35:35;;;;;;;4.40;4.10;;;15.20;88.30;;;;;;5051507;28;20578;-68
2021/10/24 09:38:03;;;;;;;5.47;4.10;;;15.30;81.80;;;;;;5053233;28;20422;-68
2021/10/24 09:40:50;;;;;;;4.97;4.60;;;15.40;80.40;;;;;;5051480;28;20451;-69
2021/10/24 09:43:20;;;;;;;5.83;4.50;;;15.40;79.10;;;;;;5051696;28;20431;-73
2021/10/24 09:45:49;;;;;;;4.57;4.20;;;15.50;79.60;;;;;;5053459;28;20482;-69
2021/10/24 09:48:17;;;;;;;4.93;4.63;;;15.70;79.30;;;;;;5052222;28;20412;-77
2021/10/24 09:50:52;;;;;;;5.17;4.37;;;15.80;79.20;;;;;;5052416;28;20701;-68
2021/10/24 09:53:26;;;;;;;5.47;5.13;;;15.50;77.20;;;;;;5051837;28;20821;-70
2021/10/24 09:55:52;;;;;;;4.90;4.67;;;15.60;77.70;;;;;;5051356;28;20436;-68
2021/10/24 09:58:19;;;;;;;4.90;4.40;;;15.70;77.80;;;;;;5052392;28;20505;-69
2021/10/24 10:00:45;;;;;;;4.57;4.27;;;15.90;76.10;;;;;;5053021;28;20185;-68
2021/10/24 10:03:12;;;;;;;4.60;4.30;;;16.20;77.30;;;;;;5052594;28;20416;-68
2021/10/24 10:05:39;;;;;;;4.63;4.43;;;16.30;75.40;;;;;;5051006;28;20431;-69
2021/10/24 10:08:10;;;;;;;101.73;62.50;;;16.40;74.10;;;;;;5053160;28;20404;-68
2021/10/24 10:10:41;;;;;;;7.80;6.23;;;16.60;74.00;;;;;;5048367;28;20400;-72
2021/10/24 10:13:12;;;;;;;5.70;3.93;;;16.80;71.80;;;;;;5052729;28;20479;-70
2021/10/24 10:15:42;;;;;;;4.73;4.53;;;17.00;71.00;;;;;;5051065;28;20404;-69
2021/10/24 10:18:08;;;;;;;4.10;3.87;;;17.10;71.40;;;;;;5053040;28;20391;-68
2021/10/24 10:20:42;;;;;;;5.00;4.70;;;17.20;69.10;;;;;;5050749;28;20502;-69
2021/10/24 10:23:10;;;;;;;4.67;4.27;;;17.30;68.20;;;;;;5049836;28;20418;-70
2021/10/24 10:25:38;;;;;;;4.37;3.87;;;17.50;68.80;;;;;;5046719;28;20404;-68
2021/10/24 10:28:05;;;;;;;3.57;3.37;;;17.70;68.60;;;;;;5052503;28;20511;-69
2021/10/24 10:30:38;;;;;;;3.87;3.57;;;17.80;68.50;;;;;;5051659;28;20495;-69
2021/10/24 10:33:33;;;;;;;4.17;3.87;;;18.00;67.90;;;;;;5052469;28;20957;-68
2021/10/24 10:36:04;;;;;;;3.70;3.50;;;18.00;65.10;;;;;;5052425;28;20780;-69
2021/10/24 10:38:43;;;;;;;4.07;3.80;;;17.90;67.40;;;;;;5051792;28;20405;-68
2021/10/24 10:41:11;;;;;;;3.63;3.43;;;17.60;68.60;;;;;;5052135;28;20408;-69
2021/10/24 10:43:38;;;;;;;3.97;3.67;;;17.90;67.40;;;;;;5051358;28;20883;-74
2021/10/24 10:46:06;;;;;;;3.53;3.33;;;18.00;65.30;;;;;;5052307;28;20423;-68
2021/10/24 10:48:38;;;;;;;4.10;3.80;;;17.70;63.80;;;;;;5051393;28;20400;-68
2021/10/24 10:51:09;;;;;;;4.03;3.73;;;17.70;67.10;;;;;;5051624;28;20420;-69
2021/10/24 10:53:47;;;;;;;89.27;55.33;;;18.00;66.50;;;;;;5050772;28;21099;-68
2021/10/24 10:56:14;;;;;;;6.30;5.23;;;18.20;67.00;;;;;;5051974;28;20464;-68
2021/10/24 10:58:45;;;;;;;6.07;3.80;;;18.10;65.10;;;;;;5051328;28;20459;-70
2021/10/24 11:01:22;;;;;;;3.10;2.90;;;18.20;64.30;;;;;;5051276;28;20397;-68
2021/10/24 11:03:53;;;;;;;4.53;3.17;;;18.40;65.00;;;;;;5048207;28;20839;-69
2021/10/24 11:06:25;;;;;;;3.60;3.40;;;18.60;65.10;;;;;;5050211;28;20776;-69
2021/10/24 11:08:52;;;;;;;3.70;3.50;;;18.90;64.00;;;;;;5051353;28;20429;-69
2021/10/24 11:11:44;;;;;;;4.00;3.60;;;19.10;61.90;;;;;;5050846;28;20423;-77
2021/10/24 11:14:15;;;;;;;3.43;3.27;;;19.20;61.50;;;;;;5053236;28;20443;-68
2021/10/24 11:16:42;;;;;;;3.90;3.70;;;19.30;61.60;;;;;;5052488;28;20439;-68
2021/10/24 11:19:27;;;;;;;4.20;3.90;;;19.60;61.00;;;;;;5053067;28;20441;-68
2021/10/24 11:22:00;;;;;;;3.40;3.10;;;19.50;58.80;;;;;;5053002;28;20404;-68
2021/10/24 11:24:40;;;;;;;4.17;3.97;;;19.40;59.00;;;;;;5052111;28;20423;-68
2021/10/24 11:27:12;;;;;;;4.37;4.07;;;19.00;58.90;;;;;;5050427;28;20466;-68
2021/10/24 11:29:50;;;;;;;4.07;3.87;;;19.00;60.10;;;;;;5051927;28;20495;-68
2021/10/24 11:32:26;;;;;;;3.90;3.70;;;19.10;58.90;;;;;;5050660;28;20456;-76
2021/10/24 11:34:55;;;;;;;3.80;3.60;;;19.20;60.10;;;;;;5052111;28;20964;-68
2021/10/24 11:37:42;;;;;;;4.00;3.70;;;19.30;62.60;;;;;;5052111;28;20767;-68
2021/10/24 11:40:22;;;;;;;3.30;3.20;;;19.60;58.50;;;;;;5052615;28;20412;-68
2021/10/24 11:43:06;;;;;;;3.40;3.20;;;19.70;58.30;;;;;;5052682;28;20397;-68
2021/10/24 11:45:41;;;;;;;3.67;3.47;;;19.90;59.80;;;;;;5052151;28;20514;-68
2021/10/24 11:48:21;;;;;;;3.43;3.20;;;19.70;57.30;;;;;;5052566;28;20407;-68
2021/10/24 11:51:06;;;;;;;3.60;3.40;;;19.40;57.30;;;;;;5052463;28;20880;-68
2021/10/24 11:53:44;;;;;;;3.40;3.10;;;19.30;57.00;;;;;;5051634;28;20455;-68
2021/10/24 11:56:52;;;;;;;3.53;3.10;;;19.20;57.90;;;;;;5051518;28;20419;-68
2021/10/24 11:59:24;;;;;;;3.77;3.47;;;19.00;57.80;;;;;;5042466;28;20470;-68
2021/10/24 12:01:49;;;;;;;3.27;3.13;;;19.00;58.30;;;;;;5052190;28;20912;-68
2021/10/24 12:04:16;;;;;;;3.20;3.00;;;19.00;59.10;;;;;;5051478;28;20506;-68
2021/10/24 12:06:56;;;;;;;3.83;3.50;;;19.00;58.50;;;;;;5047113;28;20390;-68
2021/10/24 12:09:47;;;;;;;3.00;2.90;;;18.70;57.00;;;;;;5051388;28;20424;-71
2021/10/24 12:12:14;;;;;;;3.40;3.20;;;18.50;58.70;;;;;;5050751;28;20495;-68
2021/10/24 12:14:52;;;;;;;4.87;4.00;;;18.40;58.80;;;;;;5051599;28;20420;-68
2021/10/24 12:17:29;;;;;;;15.13;8.60;;;18.10;58.20;;;;;;5052042;28;20908;-76
2021/10/24 12:20:25;;;;;;;43.83;28.33;;;18.00;58.90;;;;;;5052432;28;20411;-68
2021/10/24 12:23:02;;;;;;;43.37;31.30;;;17.90;58.80;;;;;;5051750;28;20412;-68
2021/10/24 12:25:43;;;;;;;3.50;3.13;;;17.80;58.60;;;;;;5051043;28;20900;-68
2021/10/24 12:28:20;;;;;;;3.20;3.00;;;17.60;58.80;;;;;;5051915;28;20503;-68
2021/10/24 12:30:53;;;;;;;3.00;2.80;;;17.60;59.50;;;;;;5051596;28;20510;-69
2021/10/24 12:33:32;;;;;;;3.43;3.13;;;17.40;59.00;;;;;;5051851;28;20959;-68
2021/10/24 12:36:07;;;;;;;3.97;3.67;;;17.40;59.20;;;;;;5050379;28;20524;-68
2021/10/24 12:38:53;;;;;;;3.00;2.90;;;17.20;59.60;;;;;;5051969;28;20454;-68
2021/10/24 12:41:41;;;;;;;3.13;2.93;;;17.10;59.90;;;;;;5055436;28;20478;-68
2021/10/24 12:44:17;;;;;;;3.20;3.10;;;17.00;61.40;;;;;;5055884;28;20522;-69
2021/10/24 12:46:43;;;;;;;4.53;4.03;;;17.10;61.30;;;;;;5055177;28;20473;-69
2021/10/24 12:49:15;;;;;;;3.20;3.00;;;17.20;61.80;;;;;;5054837;28;21650;-68
2021/10/24 12:51:49;;;;;;;3.30;3.00;;;17.20;63.80;;;;;;5055010;28;20181;-68